Roy, Louisiana
Current Conditions -  °F | °C
As of 12:56 AM on Sunday 23 Nov 2014 (Local Time) from KMNE Reporting Station
Overcast Overcast  
Wind Chill: 63°   Ceiling: 800
Heat Index: 63°   Visibility: 10mi
Dew Point: 59°   Wind: 6mph
Humidity: 88%   Direction: 130°SE
Pressure: 29.77"   Gusts: NA
Location:  32.2628°N, 93.0795°W
Report Text: KMNE 230656Z AUTO 13005KT 10SM OVC008 17/15 A2977 RMK AO2 P0001
Loading
Personal Weather Stations






























Interactive Weather Map New forecast layout! Learn more

10-Day Weather Forecast

Advertisements
Track Severe Weather on mobile